createdAt,value
2018-04-14T00:24:50.007Z,6.20
2018-04-14T00:41:39.626Z,2.50
2018-04-14T00:58:53.294Z,3.37
2018-04-14T01:04:10.732Z,4.47
2018-04-14T01:07:02.249Z,3.87
2018-04-14T01:18:29.316Z,2.57
2018-04-14T01:21:24.031Z,3.43
2018-04-14T01:32:30.836Z,3.30
2018-04-14T01:46:54.006Z,3.27
2018-04-14T01:49:40.167Z,3.93
2018-04-14T02:00:49.529Z,3.60
2018-04-14T02:03:38.790Z,3.40
2018-04-14T02:22:04.604Z,4.70
2018-04-14T02:24:49.047Z,3.57
2018-04-14T02:39:54.298Z,3.90
2018-04-14T02:42:24.315Z,3.57
2018-04-14T02:47:35.924Z,3.57
2018-04-14T02:52:44.867Z,5.23
2018-04-14T02:55:15.908Z,4.00
2018-04-14T02:58:50.192Z,4.77
2018-04-14T03:16:56.667Z,3.33
2018-04-14T03:19:26.641Z,3.47
2018-04-14T03:21:55.427Z,2.37
2018-04-14T03:24:24.271Z,3.37
2018-04-14T03:27:14.992Z,3.97
2018-04-14T03:29:43.275Z,3.77
2018-04-14T03:32:11.220Z,4.20
2018-04-14T03:34:51.474Z,3.23
2018-04-14T03:56:09.719Z,5.73
2018-04-14T03:58:39.025Z,3.30
2018-04-14T04:01:22.961Z,4.13
2018-04-14T04:04:02.806Z,3.77
2018-04-14T04:06:34.976Z,4.97
2018-04-14T04:09:03.052Z,5.80
2018-04-14T04:11:30.922Z,4.20
2018-04-14T04:13:59.510Z,5.07
2018-04-14T04:16:29.173Z,5.23
2018-04-14T04:52:53.021Z,5.33
2018-04-14T04:55:37.062Z,2.87
2018-04-14T04:58:05.033Z,3.57
2018-04-14T05:00:32.749Z,6.53
2018-04-14T05:03:11.625Z,5.73
2018-04-14T05:11:20.879Z,4.63
2018-04-14T05:13:49.620Z,3.77
2018-04-14T05:21:59.336Z,4.10
2018-04-14T05:24:52.385Z,3.93
2018-04-14T05:27:27.417Z,6.07
2018-04-14T05:29:57.130Z,6.13
2018-04-14T05:32:28.687Z,3.33
2018-04-14T05:40:37.737Z,4.90
2018-04-14T05:43:05.711Z,4.20
2018-04-14T06:25:15.428Z,6.00
2018-04-14T07:04:04.397Z,4.07
2018-04-14T07:09:22.462Z,7.80
2018-04-14T07:11:50.759Z,4.53
2018-04-14T07:14:18.161Z,6.40
2018-04-14T07:16:45.546Z,4.63
2018-04-14T07:19:12.975Z,9.07
2018-04-14T07:21:40.358Z,7.57
2018-04-14T07:24:07.742Z,6.70
2018-04-14T07:26:35.202Z,5.13
2018-04-14T07:29:03.833Z,7.80
2018-04-14T07:31:31.215Z,5.03
2018-04-14T07:33:58.713Z,6.07
2018-04-14T07:36:26.106Z,6.10
2018-04-14T07:38:53.514Z,5.90
2018-04-14T07:41:20.931Z,8.73
2018-04-14T07:43:48.307Z,7.27
2018-04-14T07:46:15.691Z,6.20
2018-04-14T07:48:43.118Z,8.17
2018-04-14T07:51:10.506Z,9.43
2018-04-14T07:53:37.901Z,11.40
2018-04-14T07:56:05.335Z,8.23
2018-04-14T07:58:32.809Z,14.37
2018-04-14T08:01:00.208Z,9.03
2018-04-14T08:03:27.622Z,9.73
2018-04-14T08:05:55.114Z,6.13
2018-04-14T08:08:22.510Z,6.43
2018-04-14T08:10:49.897Z,8.50
2018-04-14T08:13:17.319Z,9.23
2018-04-14T08:15:44.706Z,13.87
2018-04-14T08:18:12.131Z,10.50
2018-04-14T08:20:39.558Z,15.43
2018-04-14T08:23:07.240Z,11.40
2018-04-14T08:25:35.418Z,10.13
2018-04-14T08:28:03.293Z,7.27
2018-04-14T08:30:31.172Z,11.90
2018-04-14T08:32:58.728Z,12.53
2018-04-14T08:35:26.114Z,7.97
2018-04-14T08:37:53.677Z,11.67
2018-04-14T08:40:21.521Z,8.80
2018-04-14T08:42:50.163Z,8.33
2018-04-14T08:45:17.685Z,9.70
2018-04-14T08:47:45.121Z,9.10
2018-04-14T08:50:12.513Z,9.80
2018-04-14T08:52:40.029Z,10.40
2018-04-14T08:55:07.454Z,7.37
2018-04-14T08:57:35.906Z,7.07
2018-04-14T09:00:03.676Z,6.77
2018-04-14T09:02:36.155Z,8.70
2018-04-14T09:05:04.984Z,10.83
2018-04-14T09:10:40.804Z,14.87
2018-04-14T09:13:19.682Z,10.00
2018-04-14T09:24:33.488Z,8.67
2018-04-14T09:29:50.928Z,11.30
2018-04-14T09:35:38.045Z,11.53
2018-04-14T10:05:13.534Z,12.33
2018-04-14T10:19:11.739Z,16.97
2018-04-14T10:21:43.788Z,15.73
2018-04-14T10:30:08.747Z,11.67
2018-04-14T10:35:30.864Z,18.40
2018-04-14T10:38:00.208Z,15.73
2018-04-14T10:40:28.306Z,13.23
2018-04-14T10:42:56.681Z,13.30
2018-04-14T10:48:33.032Z,10.10
2018-04-14T10:51:17.958Z,10.83
2018-04-14T10:59:52.504Z,7.90
2018-04-14T11:19:31.880Z,14.63
2018-04-14T11:25:01.463Z,12.97
2018-04-14T11:31:07.240Z,11.20
2018-04-14T11:33:35.873Z,12.53
2018-04-14T11:36:03.698Z,12.57
2018-04-14T11:38:31.390Z,9.93
2018-04-14T11:40:59.613Z,11.17
2018-04-14T11:46:02.645Z,8.83
2018-04-14T11:48:31.607Z,8.83
2018-04-14T11:51:00.892Z,11.53
2018-04-14T11:53:28.726Z,9.07
2018-04-14T11:58:46.130Z,7.70
2018-04-14T12:01:15.356Z,11.27
2018-04-14T12:06:40.684Z,12.10
2018-04-14T12:09:15.678Z,8.20
2018-04-14T12:11:43.424Z,8.20
2018-04-14T12:14:11.396Z,6.87
2018-04-14T12:16:42.097Z,11.30
2018-04-14T12:19:09.970Z,9.17
2018-04-14T12:21:39.989Z,8.00
2018-04-14T12:24:09.177Z,8.57
2018-04-14T12:26:36.945Z,7.73
2018-04-14T12:29:05.111Z,6.80
2018-04-14T12:34:24.278Z,9.60
2018-04-14T12:36:59.656Z,7.03
2018-04-14T12:39:27.737Z,8.27
2018-04-14T12:41:58.120Z,16.43
2018-04-14T12:44:26.033Z,9.47
2018-04-14T12:47:10.901Z,12.47
2018-04-14T12:56:51.493Z,11.43
2018-04-14T12:59:19.392Z,8.37
2018-04-14T13:01:54.139Z,8.80
2018-04-14T13:04:30.019Z,9.43
2018-04-14T13:07:06.222Z,9.97
2018-04-14T13:09:34.066Z,19.47
2018-04-14T13:12:21.643Z,7.47
2018-04-14T13:14:50.645Z,8.03
2018-04-14T13:22:55.201Z,9.20
2018-04-14T13:25:26.125Z,12.97
2018-04-14T13:28:00.936Z,11.37
2018-04-14T13:30:30.884Z,7.43
2018-04-14T13:33:14.717Z,10.17
2018-04-14T13:35:46.056Z,12.57
2018-04-14T13:41:00.563Z,10.47
2018-04-14T13:43:37.473Z,9.73
2018-04-14T13:46:05.899Z,11.80
2018-04-14T13:51:24.974Z,11.87
2018-04-14T13:53:58.130Z,11.30
2018-04-14T13:56:26.709Z,11.97
2018-04-14T14:01:50.018Z,15.73
2018-04-14T14:04:28.333Z,11.10
2018-04-14T14:15:35.124Z,9.57
2018-04-14T14:21:08.915Z,12.90
2018-04-14T14:23:46.887Z,13.23
2018-04-14T14:32:34.891Z,17.13
2018-04-14T15:27:01.985Z,13.07
2018-04-14T15:29:40.603Z,13.67
2018-04-14T15:32:08.473Z,17.07
2018-04-14T15:34:36.796Z,8.17
2018-04-14T15:41:35.133Z,12.50
2018-04-14T15:44:03.371Z,10.43
2018-04-14T15:46:33.612Z,11.30
2018-04-14T15:49:01.747Z,9.47
2018-04-14T15:51:29.528Z,13.70
2018-04-14T15:54:05.499Z,18.90
2018-04-14T15:56:33.272Z,9.37
2018-04-14T15:59:02.883Z,11.13
2018-04-14T16:01:35.491Z,9.43
2018-04-14T16:04:09.658Z,11.47
2018-04-14T16:24:14.555Z,11.57
2018-04-14T16:26:45.634Z,10.03
2018-04-14T16:29:18.583Z,10.10
2018-04-14T16:34:45.741Z,8.20
2018-04-14T16:37:15.156Z,11.70
2018-04-14T16:39:43.948Z,10.17
2018-04-14T16:42:12.941Z,10.13
2018-04-14T16:44:42.346Z,13.60
2018-04-14T16:47:14.515Z,12.70
2018-04-14T16:49:58.309Z,10.03
2018-04-14T16:52:26.325Z,9.63
2018-04-14T16:57:35.067Z,9.17
2018-04-14T17:00:05.802Z,12.60
2018-04-14T17:02:37.136Z,9.27
2018-04-14T17:05:09.286Z,11.17
2018-04-14T17:07:39.039Z,8.43
2018-04-14T17:10:17.832Z,10.57
2018-04-14T17:12:45.945Z,9.03
2018-04-14T17:15:20.154Z,12.67
2018-04-14T17:37:31.311Z,13.50
2018-04-14T17:39:59.590Z,13.27
2018-04-14T17:45:26.544Z,13.23
2018-04-14T17:48:11.815Z,19.67
2018-04-14T17:50:41.310Z,10.20
2018-04-14T17:53:09.707Z,8.67
2018-04-14T17:55:38.078Z,11.43
2018-04-14T17:58:05.757Z,15.23
2018-04-14T18:00:33.726Z,16.13
2018-04-14T18:06:02.834Z,12.53
2018-04-14T18:08:31.005Z,17.57
2018-04-14T18:10:58.979Z,16.97
2018-04-14T18:13:27.475Z,14.60
2018-04-14T18:15:55.395Z,12.63
2018-04-14T18:21:08.588Z,13.53
2018-04-14T18:23:36.333Z,13.40
2018-04-14T18:26:04.528Z,11.83
2018-04-14T18:28:42.637Z,14.27
2018-04-14T18:31:10.577Z,19.37
2018-04-14T18:33:40.528Z,13.40
2018-04-14T18:36:08.596Z,15.47
2018-04-14T18:38:36.577Z,11.87
2018-04-14T18:41:04.375Z,11.37
2018-04-14T18:43:32.143Z,19.00
2018-04-14T18:46:00.497Z,10.57
2018-04-14T18:48:28.431Z,15.27
2018-04-14T18:50:56.781Z,13.33
2018-04-14T18:53:25.596Z,13.37
2018-04-14T18:55:53.722Z,13.80
2018-04-14T19:07:09.667Z,15.10
2018-04-14T19:09:37.822Z,11.37
2018-04-14T19:12:05.688Z,10.43
2018-04-14T19:14:34.711Z,12.10
2018-04-14T19:17:04.020Z,15.10
2018-04-14T19:19:38.613Z,13.27
2018-04-14T19:22:21.424Z,12.67
2018-04-14T19:24:49.766Z,12.47
2018-04-14T19:27:24.832Z,16.33
2018-04-14T19:30:09.124Z,15.83
2018-04-14T19:32:36.913Z,14.83
2018-04-14T19:35:04.565Z,13.27
2018-04-14T19:37:33.298Z,16.53
2018-04-14T19:40:00.987Z,13.43
2018-04-14T19:42:28.655Z,12.77
2018-04-14T19:44:56.296Z,16.93
2018-04-14T19:47:26.922Z,11.20
2018-04-14T19:50:02.785Z,13.70
2018-04-14T19:52:35.490Z,9.40
2018-04-14T19:55:04.179Z,11.17
2018-04-14T19:57:33.386Z,9.93
2018-04-14T20:00:01.085Z,12.17
2018-04-14T20:02:28.965Z,12.03
2018-04-14T20:04:57.572Z,10.30
2018-04-14T20:07:27.119Z,10.73
2018-04-14T20:09:54.888Z,12.27
2018-04-14T20:15:12.838Z,10.33
2018-04-14T20:17:41.119Z,10.97
2018-04-14T20:20:09.297Z,11.80
2018-04-14T20:22:37.391Z,16.27
2018-04-14T20:25:05.230Z,18.47
2018-04-14T20:27:33.969Z,17.03
2018-04-14T20:30:18.118Z,13.40
2018-04-14T20:32:46.260Z,11.07
2018-04-14T20:35:14.335Z,11.47
2018-04-14T20:37:47.839Z,16.30
2018-04-14T20:40:15.808Z,14.37
2018-04-14T20:42:50.535Z,14.43
2018-04-14T20:45:18.383Z,15.57
2018-04-14T20:47:46.076Z,14.10
2018-04-14T20:50:19.780Z,12.00
2018-04-14T20:52:48.090Z,14.87
2018-04-14T20:55:16.546Z,17.43
2018-04-14T20:57:45.030Z,16.37
2018-04-14T21:00:14.480Z,16.63
2018-04-14T21:02:45.368Z,13.57
2018-04-14T21:05:13.485Z,17.33
2018-04-14T21:07:41.336Z,15.20
2018-04-14T21:10:11.042Z,19.07
2018-04-14T21:15:32.471Z,12.27
2018-04-14T21:18:19.067Z,14.67
2018-04-14T21:20:46.837Z,14.83
2018-04-14T21:23:18.597Z,17.30
2018-04-14T21:25:48.844Z,14.60
2018-04-14T21:31:49.346Z,14.13
2018-04-14T21:37:11.796Z,12.23
